createdAt,value
2023-04-17T00:01:26.573Z,97573.03
2023-04-17T00:03:53.356Z,97568.22
2023-04-17T00:06:20.217Z,97561.75
2023-04-17T00:08:46.854Z,97570.81
2023-04-17T00:11:13.472Z,97571.97
2023-04-17T00:13:40.255Z,97561.78
2023-04-17T00:16:10.566Z,97563.53
2023-04-17T00:18:37.169Z,97568.22
2023-04-17T00:21:03.908Z,97565.84
2023-04-17T00:23:30.496Z,97562.25
2023-04-17T00:25:57.263Z,97564.22
2023-04-17T00:28:24.071Z,97558.72
2023-04-17T00:30:50.664Z,97555.72
2023-04-17T00:33:17.318Z,97567.56
2023-04-17T00:35:43.916Z,97556.53
2023-04-17T00:38:10.769Z,97559.75
2023-04-17T00:40:37.350Z,97543.41
2023-04-17T00:43:04.667Z,97546.84
2023-04-17T00:45:31.457Z,97548.28
2023-04-17T00:48:00.313Z,97548.81
2023-04-17T00:50:30.914Z,97548.81
2023-04-17T00:52:58.523Z,97547.56
2023-04-17T00:55:26.551Z,97547.97
2023-04-17T00:57:53.325Z,97544.28
2023-04-17T01:00:20.035Z,97539.19
2023-04-17T01:02:47.218Z,97540.25
2023-04-17T01:05:14.300Z,97543.00
2023-04-17T01:07:41.953Z,97534.47
2023-04-17T01:10:09.566Z,97536.75
2023-04-17T01:12:36.680Z,97532.09
2023-04-17T01:15:03.851Z,97527.50
2023-04-17T01:17:30.769Z,97524.19
2023-04-17T01:19:57.792Z,97518.03
2023-04-17T01:22:25.108Z,97522.38
2023-04-17T01:24:56.327Z,97527.03
2023-04-17T01:27:25.632Z,97522.16
2023-04-17T01:29:52.236Z,97526.31
2023-04-17T01:32:19.652Z,97518.59
2023-04-17T01:34:46.366Z,97506.19
2023-04-17T01:37:13.088Z,97510.03
2023-04-17T01:39:40.641Z,97504.00
2023-04-17T01:42:07.337Z,97503.91
2023-04-17T01:44:34.106Z,97502.53
2023-04-17T01:47:00.937Z,97497.97
2023-04-17T01:49:27.737Z,97495.16
2023-04-17T01:51:54.421Z,97489.31
2023-04-17T01:54:21.257Z,97490.53
2023-04-17T01:56:48.007Z,97490.16
2023-04-17T01:59:14.710Z,97495.41
2023-04-17T02:01:41.352Z,97491.38
2023-04-17T02:04:08.230Z,97487.56
2023-04-17T02:06:34.958Z,97489.53
2023-04-17T02:09:01.661Z,97486.44
2023-04-17T02:11:28.270Z,97493.06
2023-04-17T02:13:54.929Z,97493.59
2023-04-17T02:16:22.619Z,97496.63
2023-04-17T02:18:50.263Z,97487.53
2023-04-17T02:21:17.137Z,97481.19
2023-04-17T02:23:44.127Z,97482.00
2023-04-17T02:26:10.747Z,97485.50
2023-04-17T02:28:37.312Z,97481.66
2023-04-17T02:31:08.725Z,97476.75
2023-04-17T02:33:36.801Z,97478.97
2023-04-17T02:36:04.940Z,97476.53
2023-04-17T02:38:37.828Z,97484.22
2023-04-17T02:41:05.407Z,97475.19
2023-04-17T02:43:32.996Z,97472.94
2023-04-17T02:45:59.645Z,97475.34
2023-04-17T02:48:27.085Z,97473.25
2023-04-17T02:50:53.844Z,97473.50
2023-04-17T02:53:21.259Z,97469.34
2023-04-17T02:55:48.801Z,97465.25
2023-04-17T02:58:18.012Z,97460.56
2023-04-17T03:00:44.725Z,97463.88
2023-04-17T03:03:15.301Z,97461.75
2023-04-17T03:05:42.078Z,97462.47
2023-04-17T03:08:09.331Z,97467.44
2023-04-17T03:10:44.090Z,97460.00
2023-04-17T03:13:10.743Z,97455.88
2023-04-17T03:15:37.370Z,97466.19
2023-04-17T03:18:04.116Z,97455.31
2023-04-17T03:20:30.788Z,97465.25
2023-04-17T03:22:57.490Z,97457.81
2023-04-17T03:25:24.079Z,97468.88
2023-04-17T03:27:54.248Z,97465.13
2023-04-17T03:30:24.479Z,97464.97
2023-04-17T03:32:52.728Z,97466.91
2023-04-17T03:35:19.435Z,97473.31
2023-04-17T03:37:46.078Z,97468.88
2023-04-17T03:40:13.345Z,97474.25
2023-04-17T03:42:40.056Z,97474.78
2023-04-17T03:45:07.421Z,97468.72
2023-04-17T03:47:34.107Z,97467.06
2023-04-17T03:50:00.895Z,97476.03
2023-04-17T03:52:32.647Z,97469.81
2023-04-17T03:54:59.244Z,97483.63
2023-04-17T03:57:26.375Z,97477.16
2023-04-17T03:59:53.371Z,97475.75
2023-04-17T04:02:20.758Z,97477.41
2023-04-17T04:04:50.489Z,97473.72
2023-04-17T04:07:17.426Z,97484.09
2023-04-17T04:09:44.837Z,97478.25
2023-04-17T04:12:11.537Z,97484.22
2023-04-17T04:14:42.130Z,97491.50
2023-04-17T04:17:09.738Z,97489.03
2023-04-17T04:19:37.263Z,97494.13
2023-04-17T04:22:06.664Z,97489.47
2023-04-17T04:24:40.840Z,97495.53
2023-04-17T04:27:07.751Z,97496.22
2023-04-17T04:29:37.662Z,97493.88
2023-04-17T04:32:09.606Z,97495.53
2023-04-17T04:34:42.007Z,97495.81
2023-04-17T04:37:08.761Z,97488.50
2023-04-17T04:39:40.109Z,97499.41
2023-04-17T04:42:10.019Z,97502.59
2023-04-17T04:45:04.948Z,97494.84
2023-04-17T04:47:32.761Z,97507.00
2023-04-17T04:49:59.391Z,97505.91
2023-04-17T04:52:26.555Z,97506.88
2023-04-17T04:54:56.936Z,97511.44
2023-04-17T04:57:24.848Z,97512.53
2023-04-17T04:59:56.130Z,97517.22
2023-04-17T05:02:31.889Z,97520.56
2023-04-17T05:04:59.511Z,97517.81
2023-04-17T05:07:26.256Z,97521.25
2023-04-17T05:09:53.497Z,97522.47
2023-04-17T05:12:54.179Z,97524.84
2023-04-17T05:15:21.347Z,97531.88
2023-04-17T05:17:48.056Z,97527.88
2023-04-17T05:20:15.119Z,97525.38
2023-04-17T05:22:55.722Z,97537.56
2023-04-17T05:25:22.697Z,97537.16
2023-04-17T05:27:49.854Z,97536.56
2023-04-17T05:30:17.279Z,97534.78
2023-04-17T05:32:48.502Z,97536.31
2023-04-17T05:35:27.288Z,97540.31
2023-04-17T05:37:55.698Z,97542.53
2023-04-17T05:40:22.788Z,97538.50
2023-04-17T05:42:49.801Z,97536.03
2023-04-17T05:45:18.024Z,97546.56
2023-04-17T05:47:44.963Z,97540.47
2023-04-17T05:50:11.740Z,97543.91
2023-04-17T05:52:39.613Z,97550.13
2023-04-17T05:55:09.381Z,97552.34
2023-04-17T05:57:37.560Z,97548.19
2023-04-17T06:00:10.490Z,97545.03
2023-04-17T06:02:43.074Z,97552.06
2023-04-17T06:05:16.505Z,97542.94
2023-04-17T06:07:44.715Z,97543.22
2023-04-17T06:10:11.539Z,97542.09
2023-04-17T06:12:38.592Z,97542.50
2023-04-17T06:15:12.057Z,97555.63
2023-04-17T06:17:39.519Z,97547.56
2023-04-17T06:20:10.069Z,97557.25
2023-04-17T06:22:40.605Z,97548.94
2023-04-17T06:25:08.139Z,97559.03
2023-04-17T06:27:36.819Z,97558.84
2023-04-17T06:30:05.632Z,97565.06
2023-04-17T06:32:43.257Z,97567.50
2023-04-17T06:35:13.103Z,97561.53
2023-04-17T06:37:47.396Z,97569.16
2023-04-17T06:40:14.244Z,97569.56
2023-04-17T06:42:40.938Z,97563.44
2023-04-17T06:45:12.181Z,97571.50
2023-04-17T06:47:38.880Z,97571.59
2023-04-17T06:50:06.219Z,97566.97
2023-04-17T06:52:34.347Z,97562.38
2023-04-17T06:55:02.324Z,97561.47
2023-04-17T06:57:29.202Z,97569.41
2023-04-17T06:59:56.142Z,97569.78
2023-04-17T07:02:22.948Z,97572.25
2023-04-17T07:04:49.946Z,97570.81
2023-04-17T07:07:17.005Z,97567.03
2023-04-17T07:09:45.260Z,97563.31
2023-04-17T07:12:11.891Z,97565.34
2023-04-17T07:14:40.516Z,97557.56
2023-04-17T07:17:07.488Z,97562.47
2023-04-17T07:19:34.938Z,97565.00
2023-04-17T07:22:01.599Z,97565.47
2023-04-17T07:24:28.324Z,97564.06
2023-04-17T07:26:54.965Z,97561.38
2023-04-17T07:29:21.656Z,97557.72
2023-04-17T07:31:48.295Z,97556.81
2023-04-17T07:34:14.946Z,97567.19
2023-04-17T07:36:41.524Z,97563.59
2023-04-17T07:39:08.145Z,97569.16
2023-04-17T07:41:34.752Z,97571.03
2023-04-17T07:44:03.562Z,97575.41
2023-04-17T07:46:30.266Z,97571.31
2023-04-17T07:48:56.904Z,97577.09
2023-04-17T07:51:23.487Z,97561.69
2023-04-17T07:53:50.132Z,97575.75
2023-04-17T07:56:17.588Z,97572.44
2023-04-17T07:58:45.142Z,97572.22
2023-04-17T08:01:11.960Z,97580.97
2023-04-17T08:03:41.568Z,97581.97
2023-04-17T08:06:08.650Z,97585.66
2023-04-17T08:08:35.416Z,97582.63
2023-04-17T08:11:01.990Z,97590.94
2023-04-17T08:13:31.435Z,97581.19
2023-04-17T08:15:59.555Z,97583.09
2023-04-17T08:18:26.191Z,97587.09
2023-04-17T08:20:53.018Z,97586.41
2023-04-17T08:23:19.705Z,97595.22
2023-04-17T08:25:46.487Z,97593.53
2023-04-17T08:28:15.600Z,97591.94
2023-04-17T08:30:42.315Z,97593.94
2023-04-17T08:33:08.894Z,97590.16
2023-04-17T08:35:35.468Z,97584.84
2023-04-17T08:38:02.295Z,97590.78
2023-04-17T08:40:28.936Z,97593.97
2023-04-17T08:42:55.582Z,97594.16
2023-04-17T08:45:26.751Z,97590.72
2023-04-17T08:47:53.510Z,97596.22
2023-04-17T08:50:21.995Z,97597.59
2023-04-17T08:52:52.689Z,97593.25
2023-04-17T08:55:21.420Z,97591.75
2023-04-17T08:58:03.932Z,97597.06
2023-04-17T09:00:33.025Z,97591.59
2023-04-17T09:03:01.769Z,97593.50
2023-04-17T09:05:30.604Z,97589.91
2023-04-17T09:08:22.973Z,97584.25
2023-04-17T09:10:55.258Z,97588.75
2023-04-17T09:13:27.288Z,97598.00
2023-04-17T09:16:05.781Z,97588.09
2023-04-17T09:18:33.456Z,97587.75
2023-04-17T09:21:01.113Z,97595.09
2023-04-17T09:23:29.781Z,97588.75
2023-04-17T09:26:05.926Z,97599.94
2023-04-17T09:28:35.524Z,97590.41
2023-04-17T09:31:05.559Z,97592.59
2023-04-17T09:33:32.569Z,97583.53
2023-04-17T09:36:22.219Z,97576.41
2023-04-17T09:38:49.272Z,97583.94
2023-04-17T09:41:39.371Z,97574.81
2023-04-17T09:44:06.460Z,97580.41
2023-04-17T09:46:35.700Z,97585.72
2023-04-17T09:49:07.974Z,97571.22
2023-04-17T09:51:34.695Z,97576.34
2023-04-17T09:54:05.586Z,97578.00
2023-04-17T09:56:33.883Z,97577.28
2023-04-17T09:59:04.114Z,97582.03
2023-04-17T10:01:32.581Z,97569.09
2023-04-17T10:04:00.137Z,97567.16
2023-04-17T10:06:27.234Z,97557.88
2023-04-17T10:08:54.578Z,97557.25
2023-04-17T10:11:24.598Z,97545.88
2023-04-17T10:14:24.481Z,97547.75
2023-04-17T10:16:51.469Z,97548.38
2023-04-17T10:19:30.289Z,97549.09
2023-04-17T10:22:15.962Z,97543.78
2023-04-17T10:24:43.175Z,97538.00
2023-04-17T10:27:32.303Z,97545.56
2023-04-17T10:30:01.490Z,97543.72
2023-04-17T10:32:29.673Z,97542.56
2023-04-17T10:34:57.221Z,97534.31
2023-04-17T10:37:46.915Z,97534.47
2023-04-17T10:40:24.610Z,97535.09
2023-04-17T10:43:13.774Z,97540.09
2023-04-17T10:46:03.354Z,97530.94
2023-04-17T10:48:33.360Z,97530.06
2023-04-17T10:51:01.368Z,97532.13
2023-04-17T10:53:41.470Z,97524.53
2023-04-17T10:56:09.688Z,97525.13
2023-04-17T10:58:55.896Z,97518.72
2023-04-17T11:01:29.622Z,97518.69
2023-04-17T11:03:57.188Z,97514.94
2023-04-17T11:06:28.815Z,97511.50
2023-04-17T11:08:59.224Z,97512.53
2023-04-17T11:11:40.601Z,97515.94
2023-04-17T11:14:14.590Z,97505.53
2023-04-17T11:16:43.273Z,97505.72
2023-04-17T11:19:11.691Z,97503.28
2023-04-17T11:21:45.687Z,97505.41
2023-04-17T11:24:12.343Z,97505.47
2023-04-17T11:26:46.617Z,97503.16
2023-04-17T11:29:17.559Z,97505.09
2023-04-17T11:31:48.710Z,97501.25
2023-04-17T11:34:16.246Z,97499.91
2023-04-17T11:36:52.881Z,97498.53
2023-04-17T11:39:22.519Z,97502.72
2023-04-17T11:41:51.588Z,97498.63
2023-04-17T11:44:22.438Z,97496.38
2023-04-17T11:46:53.655Z,97504.78
2023-04-17T11:49:30.824Z,97502.72
2023-04-17T11:52:01.635Z,97499.00
2023-04-17T11:54:29.410Z,97500.63
2023-04-17T11:57:25.938Z,97498.41
2023-04-17T11:59:52.568Z,97501.63
2023-04-17T12:02:32.969Z,97497.19
2023-04-17T12:05:13.723Z,97505.63
2023-04-17T12:07:40.653Z,97502.25
2023-04-17T12:10:08.169Z,97503.44
2023-04-17T12:12:34.817Z,97505.09
2023-04-17T12:15:01.715Z,97500.09
2023-04-17T12:17:28.400Z,97497.66
2023-04-17T12:19:56.432Z,97511.09
2023-04-17T12:22:23.757Z,97507.47
2023-04-17T12:24:51.109Z,97492.50
2023-04-17T12:27:18.198Z,97501.53
2023-04-17T12:29:45.434Z,97495.53
2023-04-17T12:32:12.662Z,97494.50
2023-04-17T12:34:39.630Z,97490.66
2023-04-17T12:37:06.519Z,97497.44
2023-04-17T12:39:33.705Z,97492.69
2023-04-17T12:42:01.007Z,97492.31
2023-04-17T12:44:28.027Z,97481.84
2023-04-17T12:46:54.760Z,97489.03
2023-04-17T12:49:23.621Z,97486.97
2023-04-17T12:51:51.535Z,97490.47
2023-04-17T12:54:18.622Z,97489.44
2023-04-17T12:56:45.308Z,97488.84
2023-04-17T12:59:12.215Z,97478.38
2023-04-17T13:01:38.986Z,97479.59
2023-04-17T13:04:06.200Z,97489.84
2023-04-17T13:06:33.088Z,97478.13
2023-04-17T13:08:59.858Z,97475.34
2023-04-17T13:11:27.436Z,97475.09
2023-04-17T13:13:54.307Z,97474.66
2023-04-17T13:16:21.058Z,97470.09
2023-04-17T13:18:48.149Z,97471.31
2023-04-17T13:21:17.265Z,97466.81
2023-04-17T13:23:43.956Z,97471.03
2023-04-17T13:26:10.743Z,97472.38
2023-04-17T13:28:37.374Z,97464.88
2023-04-17T13:31:04.246Z,97468.56
2023-04-17T13:33:33.817Z,97473.09
2023-04-17T13:36:01.017Z,97476.47
2023-04-17T13:38:27.922Z,97474.19
2023-04-17T13:40:54.624Z,97468.41
2023-04-17T13:43:21.422Z,97470.81
2023-04-17T13:45:49.980Z,97468.38
2023-04-17T13:48:16.901Z,97464.78
2023-04-17T13:50:43.582Z,97473.28
2023-04-17T13:53:12.188Z,97467.00
2023-04-17T13:55:38.927Z,97463.84
2023-04-17T13:58:05.591Z,97470.06
2023-04-17T14:00:32.158Z,97473.06
2023-04-17T14:03:00.072Z,97467.03
2023-04-17T14:05:26.809Z,97464.84
2023-04-17T14:07:53.456Z,97459.06
2023-04-17T14:10:20.103Z,97466.63
2023-04-17T14:12:46.768Z,97463.31
2023-04-17T14:15:13.331Z,97471.41
2023-04-17T14:17:43.166Z,97466.34
2023-04-17T14:20:11.349Z,97468.84
2023-04-17T14:22:37.934Z,97462.69
2023-04-17T14:25:04.769Z,97461.97
2023-04-17T14:27:31.383Z,97465.72
2023-04-17T14:29:59.998Z,97466.13
2023-04-17T14:32:27.959Z,97460.56
2023-04-17T14:34:55.488Z,97464.38
2023-04-17T14:37:22.132Z,97466.00
2023-04-17T14:39:48.718Z,97461.13
2023-04-17T14:42:15.411Z,97466.19
2023-04-17T14:44:43.485Z,97470.44
2023-04-17T14:47:11.041Z,97477.19
2023-04-17T14:49:37.689Z,97475.06
2023-04-17T14:52:04.586Z,97467.84
2023-04-17T14:54:31.338Z,97467.91
2023-04-17T14:56:58.106Z,97470.47
2023-04-17T14:59:26.647Z,97469.59
2023-04-17T15:01:53.415Z,97463.34
2023-04-17T15:04:20.416Z,97462.69
2023-04-17T15:06:47.165Z,97459.41
2023-04-17T15:09:13.999Z,97458.75
2023-04-17T15:11:40.689Z,97447.53
2023-04-17T15:14:07.366Z,97449.25
2023-04-17T15:16:34.013Z,97450.75
2023-04-17T15:19:00.719Z,97445.13
2023-04-17T15:21:27.336Z,97454.09
2023-04-17T15:23:53.894Z,97440.78
2023-04-17T15:26:20.579Z,97447.94
2023-04-17T15:28:47.167Z,97444.72
2023-04-17T15:31:13.762Z,97448.69
2023-04-17T15:33:40.443Z,97434.25
2023-04-17T15:36:07.274Z,97444.63
2023-04-17T15:38:34.160Z,97441.78
2023-04-17T15:41:00.883Z,97442.16
2023-04-17T15:43:27.582Z,97447.91
2023-04-17T15:45:55.253Z,97442.56
2023-04-17T15:48:21.872Z,97447.13
2023-04-17T15:50:48.531Z,97449.84
2023-04-17T15:53:15.179Z,97445.28
2023-04-17T15:55:41.779Z,97437.28
2023-04-17T15:58:08.524Z,97445.50
2023-04-17T16:00:35.226Z,97438.94
2023-04-17T16:03:02.047Z,97446.06
2023-04-17T16:05:30.615Z,97443.00
2023-04-17T16:07:57.415Z,97444.25
2023-04-17T16:10:24.220Z,97444.06
2023-04-17T16:12:50.901Z,97437.69
2023-04-17T16:15:17.760Z,97441.34
2023-04-17T16:17:45.736Z,97446.59
2023-04-17T16:20:13.210Z,97447.41
2023-04-17T16:22:40.142Z,97448.41
2023-04-17T16:25:07.122Z,97446.13
2023-04-17T16:27:34.214Z,97449.63
2023-04-17T16:30:00.832Z,97448.06
2023-04-17T16:32:27.709Z,97449.16
2023-04-17T16:34:54.597Z,97447.13
2023-04-17T16:37:21.188Z,97456.38
2023-04-17T16:39:48.436Z,97446.63
2023-04-17T16:42:15.244Z,97455.81
2023-04-17T16:44:41.911Z,97459.66
2023-04-17T16:49:38.198Z,97459.03
2023-04-17T16:52:04.942Z,97460.81
2023-04-17T16:54:32.038Z,97470.84
2023-04-17T16:56:58.954Z,97473.97
2023-04-17T16:59:26.845Z,97471.34
2023-04-17T17:01:56.595Z,97473.56
2023-04-17T17:04:25.567Z,97478.72
2023-04-17T17:06:52.194Z,97476.66
2023-04-17T17:09:21.488Z,97483.09
2023-04-17T17:11:49.918Z,97479.38
2023-04-17T17:14:17.787Z,97477.22
2023-04-17T17:16:45.493Z,97478.41
2023-04-17T17:19:13.055Z,97479.72
2023-04-17T17:21:41.436Z,97484.16
2023-04-17T17:24:11.515Z,97482.69
2023-04-17T17:26:39.389Z,97485.31
2023-04-17T17:29:07.396Z,97481.66
2023-04-17T17:31:35.144Z,97488.06
2023-04-17T17:34:16.730Z,97487.19
2023-04-17T17:36:51.054Z,97485.56
2023-04-17T17:39:18.185Z,97487.69
2023-04-17T17:41:47.419Z,97487.34
2023-04-17T17:44:15.100Z,97485.31
2023-04-17T17:46:42.545Z,97490.59
2023-04-17T17:49:09.919Z,97493.38
2023-04-17T17:51:37.892Z,97499.94
2023-04-17T17:54:04.492Z,97506.16
2023-04-17T17:56:31.707Z,97500.88
2023-04-17T17:58:58.617Z,97508.81
2023-04-17T18:01:26.106Z,97507.44
2023-04-17T18:03:53.404Z,97506.91
2023-04-17T18:06:20.392Z,97509.09
2023-04-17T18:08:47.588Z,97520.28
2023-04-17T18:11:14.200Z,97523.38
2023-04-17T18:13:41.585Z,97523.72
2023-04-17T18:16:08.364Z,97522.28
2023-04-17T18:18:35.034Z,97521.06
2023-04-17T18:21:06.459Z,97518.13
2023-04-17T18:23:33.060Z,97523.38
2023-04-17T18:26:02.036Z,97529.28
2023-04-17T18:28:28.789Z,97528.31
2023-04-17T18:30:55.602Z,97529.03
2023-04-17T18:33:22.290Z,97535.59
2023-04-17T18:35:49.384Z,97543.69
2023-04-17T18:38:16.711Z,97548.72
2023-04-17T18:40:43.364Z,97549.16
2023-04-17T18:43:10.167Z,97549.59
2023-04-17T18:45:37.005Z,97557.91
2023-04-17T18:48:03.788Z,97546.56
2023-04-17T18:50:30.563Z,97556.78
2023-04-17T18:52:57.133Z,97555.38
2023-04-17T18:55:23.942Z,97561.47
2023-04-17T18:57:50.609Z,97556.66
2023-04-17T19:00:17.280Z,97557.91
2023-04-17T19:02:44.018Z,97568.59
2023-04-17T19:05:10.740Z,97570.59
2023-04-17T19:07:37.396Z,97576.09
2023-04-17T19:10:04.476Z,97576.28
2023-04-17T19:12:31.220Z,97577.25
2023-04-17T19:14:57.878Z,97583.63
2023-04-17T19:17:25.465Z,97581.59
2023-04-17T19:19:52.348Z,97582.34
2023-04-17T19:22:19.097Z,97580.25
2023-04-17T19:24:49.783Z,97571.22
2023-04-17T19:27:17.113Z,97568.72
2023-04-17T19:29:43.701Z,97576.13
2023-04-17T19:32:10.845Z,97573.50
2023-04-17T19:34:37.753Z,97580.97
2023-04-17T19:37:04.983Z,97572.97
2023-04-17T19:39:31.580Z,97572.69
2023-04-17T19:41:58.197Z,97572.00
2023-04-17T19:44:25.902Z,97568.50
2023-04-17T19:46:53.967Z,97571.13
2023-04-17T19:49:20.603Z,97566.56
2023-04-17T19:51:47.268Z,97565.25
2023-04-17T19:54:15.318Z,97568.88
2023-04-17T19:56:41.940Z,97563.41
2023-04-17T19:59:12.565Z,97559.03
2023-04-17T20:01:42.083Z,97560.97
2023-04-17T20:04:10.033Z,97569.00
2023-04-17T20:06:36.641Z,97556.59
2023-04-17T20:09:04.674Z,97565.50
2023-04-17T20:11:31.350Z,97554.34
2023-04-17T20:13:57.941Z,97565.75
2023-04-17T20:16:25.098Z,97564.63
2023-04-17T20:18:52.080Z,97563.47
2023-04-17T20:21:19.087Z,97563.19
2023-04-17T20:23:48.020Z,97564.03
2023-04-17T20:26:15.486Z,97564.06
2023-04-17T20:28:42.398Z,97558.78
2023-04-17T20:31:09.924Z,97558.28
2023-04-17T20:33:37.492Z,97549.41
2023-04-17T20:36:06.316Z,97553.78
2023-04-17T20:38:33.121Z,97552.41
2023-04-17T20:40:59.927Z,97553.66
2023-04-17T20:43:26.823Z,97555.50
2023-04-17T20:45:53.662Z,97558.50
2023-04-17T20:48:20.822Z,97554.41
2023-04-17T20:50:48.069Z,97558.50
2023-04-17T20:53:15.573Z,97558.53
2023-04-17T20:55:42.514Z,97550.66
2023-04-17T20:58:09.728Z,97559.88
2023-04-17T21:00:37.257Z,97565.59
2023-04-17T21:03:06.882Z,97562.97
2023-04-17T21:05:33.612Z,97559.81
2023-04-17T21:08:00.233Z,97558.72
2023-04-17T21:10:27.338Z,97550.38
2023-04-17T21:12:54.128Z,97560.50
2023-04-17T21:15:21.083Z,97558.56
2023-04-17T21:17:48.016Z,97557.41
2023-04-17T21:20:15.061Z,97554.38
2023-04-17T21:22:42.118Z,97550.13
2023-04-17T21:25:09.119Z,97548.19
2023-04-17T21:27:36.345Z,97549.00
2023-04-17T21:30:03.971Z,97544.88
2023-04-17T21:32:30.865Z,97542.09
2023-04-17T21:34:57.741Z,97536.84
2023-04-17T21:37:24.780Z,97541.97
2023-04-17T21:39:51.340Z,97546.66
2023-04-17T21:42:18.161Z,97541.16
2023-04-17T21:44:44.778Z,97538.22
2023-04-17T21:47:11.389Z,97544.03
2023-04-17T21:49:37.981Z,97542.38
2023-04-17T21:52:04.587Z,97541.44
2023-04-17T21:54:31.208Z,97546.53
2023-04-17T21:56:57.759Z,97540.84
2023-04-17T21:59:24.400Z,97541.81
2023-04-17T22:01:51.009Z,97543.44
2023-04-17T22:04:17.678Z,97541.25
2023-04-17T22:06:44.252Z,97541.00
2023-04-17T22:09:10.928Z,97545.13
2023-04-17T22:11:38.539Z,97542.66
2023-04-17T22:14:05.288Z,97549.03
2023-04-17T22:16:31.909Z,97534.91
2023-04-17T22:18:58.615Z,97546.66
2023-04-17T22:21:26.782Z,97553.59
2023-04-17T22:23:53.433Z,97548.22
2023-04-17T22:26:21.235Z,97552.34
2023-04-17T22:28:47.903Z,97548.47
2023-04-17T22:31:15.478Z,97549.16
2023-04-17T22:33:42.982Z,97548.19
2023-04-17T22:36:09.616Z,97539.88
2023-04-17T22:38:36.254Z,97540.31
2023-04-17T22:41:04.130Z,97543.78
2023-04-17T22:43:30.758Z,97535.75
2023-04-17T22:45:57.442Z,97545.41
2023-04-17T22:48:24.675Z,97543.63
2023-04-17T22:50:51.416Z,97540.31
2023-04-17T22:53:18.017Z,97546.53
2023-04-17T22:55:44.594Z,97534.53
2023-04-17T22:58:11.454Z,97545.69
2023-04-17T23:00:38.073Z,97541.56
2023-04-17T23:03:04.802Z,97543.34
2023-04-17T23:05:31.642Z,97543.47
2023-04-17T23:07:58.230Z,97543.34
2023-04-17T23:10:24.806Z,97547.50
2023-04-17T23:12:51.391Z,97543.47
2023-04-17T23:15:18.020Z,97548.75
2023-04-17T23:17:44.641Z,97541.97
2023-04-17T23:20:11.544Z,97545.28
2023-04-17T23:22:38.174Z,97541.84
2023-04-17T23:25:05.175Z,97542.94
2023-04-17T23:27:32.053Z,97542.66
2023-04-17T23:29:59.483Z,97539.91
2023-04-17T23:32:27.403Z,97551.94
2023-04-17T23:34:54.017Z,97540.72
2023-04-17T23:37:20.767Z,97535.06
2023-04-17T23:39:47.633Z,97527.72
2023-04-17T23:42:14.487Z,97526.63
2023-04-17T23:44:41.086Z,97527.44
2023-04-17T23:47:07.732Z,97529.94
2023-04-17T23:49:35.813Z,97518.88
2023-04-17T23:52:02.626Z,97515.00
2023-04-17T23:54:29.232Z,97526.38
2023-04-17T23:56:55.817Z,97516.56
2023-04-17T23:59:22.397Z,97520.69
